createdAt,value
2023-02-11T00:00:41.050Z,19.3
2023-02-11T00:06:18.998Z,19.3
2023-02-11T00:11:57.761Z,19.3
2023-02-11T00:17:36.167Z,19.3
2023-02-11T00:23:16.159Z,19.3
2023-02-11T00:28:52.953Z,19.2
2023-02-11T00:34:31.137Z,19.2
2023-02-11T00:39:53.674Z,19.2
2023-02-11T00:45:16.648Z,19.1
2023-02-11T00:50:54.916Z,19.1
2023-02-11T00:56:16.991Z,19.1
2023-02-11T01:01:54.700Z,19.1
2023-02-11T01:07:33.407Z,19.1
2023-02-11T01:13:10.132Z,19.1
2023-02-11T01:18:48.568Z,19.1
2023-02-11T01:24:26.076Z,19
2023-02-11T01:29:47.984Z,19
2023-02-11T01:35:26.376Z,19
2023-02-11T01:41:03.271Z,19
2023-02-11T01:46:40.453Z,18.9
2023-02-11T01:52:18.574Z,18.9
2023-02-11T01:57:56.395Z,18.9
2023-02-11T02:03:33.117Z,18.9
2023-02-11T02:09:10.380Z,18.9
2023-02-11T02:14:47.718Z,18.9
2023-02-11T02:20:24.563Z,18.9
2023-02-11T02:25:15.534Z,18.9
2023-02-11T02:30:53.812Z,18.9
2023-02-11T02:36:45.789Z,18.8
2023-02-11T02:42:23.538Z,18.8
2023-02-11T02:48:01.657Z,18.8
2023-02-11T02:53:38.259Z,18.8
2023-02-11T02:59:20.138Z,18.8
2023-02-11T03:04:57.996Z,18.8
2023-02-11T03:10:35.274Z,18.8
2023-02-11T03:16:12.747Z,18.8
2023-02-11T03:21:50.852Z,18.8
2023-02-11T03:27:28.106Z,18.8
2023-02-11T04:04:47.999Z,18.6
2023-02-11T04:09:54.280Z,18.6
2023-02-11T04:15:31.652Z,18.6
2023-02-11T04:21:11.353Z,18.6
2023-02-11T04:26:47.664Z,18.6
2023-02-11T04:32:25.090Z,18.6
2023-02-11T04:37:47.013Z,18.6
2023-02-11T04:43:24.081Z,18.6
2023-02-11T04:49:01.859Z,18.6
2023-02-11T04:54:40.274Z,18.5
2023-02-11T05:00:17.307Z,18.6
2023-02-11T05:05:54.619Z,18.5
2023-02-11T05:11:32.571Z,18.5
2023-02-11T05:17:10.710Z,18.5
2023-02-11T05:23:07.591Z,18.5
2023-02-11T05:28:45.668Z,18.5
2023-02-11T05:34:23.347Z,18.5
2023-02-11T05:40:00.225Z,18.5
2023-02-11T05:45:23.851Z,18.5
2023-02-11T05:51:01.820Z,18.5
2023-02-11T05:56:39.633Z,18.5
2023-02-11T06:02:16.879Z,18.5
2023-02-11T06:07:54.416Z,18.4
2023-02-11T06:13:30.451Z,18.4
2023-02-11T06:18:36.322Z,18.4
2023-02-11T06:24:33.034Z,18.4
2023-02-11T06:30:25.137Z,18.4
2023-02-11T06:36:23.654Z,18.4
2023-02-11T06:42:00.641Z,18.4
2023-02-11T06:47:37.467Z,18.4
2023-02-11T06:53:16.074Z,18.3
2023-02-11T06:58:52.899Z,18.3
2023-02-11T07:04:29.610Z,18.3
2023-02-11T07:10:08.599Z,18.2
2023-02-11T07:15:49.706Z,18.2
2023-02-11T07:21:25.909Z,18.2
2023-02-11T07:27:03.069Z,18.3
2023-02-11T07:32:42.710Z,18.3
2023-02-11T07:38:19.615Z,18.2
2023-02-11T07:43:56.443Z,18.2
2023-02-11T07:49:35.298Z,14.9
2023-02-11T07:55:14.428Z,43.4
2023-02-11T08:00:54.148Z,38.8
2023-02-11T08:06:32.367Z,32.8
2023-02-11T08:12:10.346Z,31.1
2023-02-11T08:17:47.629Z,45.4
2023-02-11T08:23:26.117Z,44.8
2023-02-11T08:29:06.053Z,39.1
2023-02-11T08:34:44.039Z,34.8
2023-02-11T08:40:41.437Z,46.6
2023-02-11T08:46:19.293Z,47.8
2023-02-11T08:51:41.369Z,44.8
2023-02-11T08:57:04.155Z,45.1
2023-02-11T09:02:43.606Z,46.9
2023-02-11T09:08:21.426Z,48.2
2023-02-11T09:13:27.738Z,48.9
2023-02-11T09:19:04.837Z,50.1
2023-02-11T09:24:42.305Z,50.8
2023-02-11T09:30:19.844Z,52.6
2023-02-11T09:35:58.687Z,53.3
2023-02-11T09:41:36.633Z,54.1
2023-02-11T09:47:02.476Z,54.8
2023-02-11T09:52:39.822Z,55.3
2023-02-11T09:58:34.743Z,56.8
2023-02-11T10:04:12.011Z,56.8
2023-02-11T10:09:34.952Z,56.8
2023-02-11T10:15:13.428Z,57.6
2023-02-11T10:20:51.878Z,58
2023-02-11T10:26:29.505Z,58.4
2023-02-11T10:36:47.181Z,59.3
2023-02-11T10:42:24.803Z,59.8
2023-02-11T10:48:02.950Z,59.2
2023-02-11T10:53:24.550Z,59.4
2023-02-11T10:59:01.051Z,59.5
2023-02-11T11:04:49.764Z,60.4
2023-02-11T11:10:29.745Z,60.3
2023-02-11T11:16:06.505Z,60.5
2023-02-11T11:22:02.190Z,60.4
2023-02-11T11:27:40.025Z,60.3
2023-02-11T11:33:18.697Z,59.9
2023-02-11T11:38:56.031Z,59.7
2023-02-11T11:44:17.907Z,59.5
2023-02-11T11:49:55.193Z,59.6
2023-02-11T11:55:17.827Z,59.3
2023-02-11T12:00:40.032Z,59.1
2023-02-11T12:06:18.078Z,56.5
2023-02-11T12:11:42.023Z,50.3
2023-02-11T12:16:49.399Z,45.2
2023-02-11T12:21:55.819Z,42.1
2023-02-11T12:27:33.405Z,61.4
2023-02-11T12:33:14.694Z,58.5
2023-02-11T12:38:53.120Z,50.4
2023-02-11T12:44:30.456Z,45.1
2023-02-11T12:50:07.932Z,41
2023-02-11T12:55:29.405Z,37.9
2023-02-11T13:01:18.180Z,35.4
2023-02-11T13:06:58.895Z,33.5
2023-02-11T13:12:37.817Z,31.9
2023-02-11T13:18:15.873Z,30.6
2023-02-11T13:23:23.406Z,29.5
2023-02-11T13:28:44.778Z,28.6
2023-02-11T13:39:30.762Z,27.3
2023-02-11T13:45:07.554Z,26.5
2023-02-11T13:50:29.982Z,26
2023-02-11T13:55:50.768Z,25.4
2023-02-11T14:01:28.086Z,25
2023-02-11T14:07:07.369Z,24.6
2023-02-11T14:12:44.611Z,24.3
2023-02-11T14:18:38.544Z,23.9
2023-02-11T14:24:16.047Z,23.7
2023-02-11T14:29:52.790Z,23.4
2023-02-11T14:35:31.424Z,23.3
2023-02-11T14:41:09.353Z,23.1
2023-02-11T14:46:47.767Z,22.9
2023-02-11T14:52:11.440Z,22.7
2023-02-11T14:57:49.592Z,22.6
2023-02-11T15:03:12.188Z,22.4
2023-02-11T15:08:49.872Z,22.3
2023-02-11T15:14:28.640Z,22.1
2023-02-11T15:19:51.249Z,22.1
2023-02-11T15:25:13.154Z,21.9
2023-02-11T15:30:39.169Z,21.8
2023-02-11T15:36:17.703Z,21.8
2023-02-11T15:41:54.573Z,21.6
2023-02-11T15:47:47.497Z,21.6
2023-02-11T15:53:25.684Z,21.4
2023-02-11T15:59:02.318Z,21.4
2023-02-11T16:04:42.852Z,21.3
2023-02-11T16:10:19.558Z,21.3
2023-02-11T16:15:57.369Z,21.2
2023-02-11T16:27:21.632Z,21.1
2023-02-11T16:33:03.116Z,21.1
2023-02-11T16:38:43.752Z,20.9
2023-02-11T16:44:20.256Z,20.9
2023-02-11T16:49:42.590Z,20.8
2023-02-11T16:55:23.194Z,20.8
2023-02-11T17:01:01.447Z,20.7
2023-02-11T17:06:50.055Z,20.7
2023-02-11T17:12:28.193Z,20.6
2023-02-11T17:17:51.076Z,20.6
2023-02-11T17:23:14.550Z,20.6
2023-02-11T17:28:52.691Z,20.5
2023-02-11T17:34:15.577Z,20.5
2023-02-11T17:39:56.086Z,20.5
2023-02-11T17:45:37.715Z,20.5
2023-02-11T17:51:02.238Z,20.5
2023-02-11T17:56:25.435Z,20.4
2023-02-11T18:01:48.978Z,20.4
2023-02-11T18:07:14.126Z,20.4
2023-02-11T18:12:39.130Z,20.4
2023-02-11T18:18:17.425Z,20.4
2023-02-11T18:23:55.308Z,20.4
2023-02-11T18:29:35.465Z,20.4
2023-02-11T18:35:15.041Z,20.4
2023-02-11T18:40:21.418Z,20.3
2023-02-11T18:45:58.389Z,20.3
2023-02-11T18:51:37.229Z,20.3
2023-02-11T18:57:15.062Z,20.2
2023-02-11T19:02:53.741Z,20.2
2023-02-11T19:08:32.361Z,20.2
2023-02-11T19:13:53.630Z,20.2
2023-02-11T19:19:04.250Z,20.2
2023-02-11T19:24:45.306Z,20.2
2023-02-11T19:30:06.192Z,20.2
2023-02-11T19:35:43.743Z,20.1
2023-02-11T19:41:22.518Z,20.1
2023-02-11T19:47:00.524Z,20.1
2023-02-11T19:52:38.169Z,20.1
2023-02-11T19:58:16.009Z,20.1
2023-02-11T20:03:55.741Z,20
2023-02-11T20:09:34.607Z,19.9
2023-02-11T20:14:44.409Z,19.9
2023-02-11T20:20:30.535Z,19.9
2023-02-11T20:26:08.644Z,19.9
2023-02-11T20:31:46.847Z,19.9
2023-02-11T20:37:23.181Z,19.9
2023-02-11T20:42:49.560Z,19.8
2023-02-11T20:48:27.962Z,19.8
2023-02-11T20:54:04.846Z,19.9
2023-02-11T20:59:41.288Z,19.9
2023-02-11T21:05:03.366Z,19.8
2023-02-11T21:10:40.332Z,19.8
2023-02-11T21:16:02.553Z,19.8
2023-02-11T21:21:40.687Z,19.8
2023-02-11T21:27:17.860Z,19.8
2023-02-11T21:33:03.395Z,19.8
2023-02-11T21:38:43.843Z,19.8
2023-02-11T21:43:49.145Z,19.8
2023-02-11T21:49:26.976Z,19.7
2023-02-11T21:54:52.152Z,19.7
2023-02-11T22:00:28.446Z,19.7
2023-02-11T22:06:06.336Z,19.6
2023-02-11T22:11:44.985Z,19.6
2023-02-11T22:17:23.587Z,19.6
2023-02-11T22:23:00.460Z,19.6
2023-02-11T22:28:38.082Z,19.6
2023-02-11T22:34:15.884Z,19.6
2023-02-11T22:39:41.112Z,19.5
2023-02-11T22:45:18.485Z,19.5
2023-02-11T22:50:57.414Z,19.5
2023-02-11T22:56:34.332Z,19.4
2023-02-11T23:02:12.312Z,19.4
2023-02-11T23:07:50.448Z,19.4
2023-02-11T23:13:28.034Z,19.4
2023-02-11T23:18:50.861Z,19.4
2023-02-11T23:24:28.612Z,19.4
2023-02-11T23:30:06.500Z,19.4
2023-02-11T23:35:45.238Z,19.4
2023-02-11T23:41:22.742Z,19.3
2023-02-11T23:47:01.554Z,19.4
2023-02-11T23:52:08.740Z,19.3
2023-02-11T23:57:45.281Z,19.3
